sensor_id;sensor_type;location;lat;lon;timestamp;temperature;humidity
5023;DHT22;2530;47.990;7.866;2023-04-03T00:01:54;6.80;99.90
5023;DHT22;2530;47.990;7.866;2023-04-03T00:04:19;6.90;99.90
5023;DHT22;2530;47.990;7.866;2023-04-03T00:06:45;6.90;99.90
5023;DHT22;2530;47.990;7.866;2023-04-03T00:09:10;6.80;99.90
5023;DHT22;2530;47.990;7.866;2023-04-03T00:11:36;6.80;99.90
5023;DHT22;2530;47.990;7.866;2023-04-03T00:14:01;6.90;99.90
5023;DHT22;2530;47.990;7.866;2023-04-03T00:16:27;6.90;99.90
5023;DHT22;2530;47.990;7.866;2023-04-03T00:18:53;6.80;99.90
5023;DHT22;2530;47.990;7.866;2023-04-03T00:21:18;6.60;99.90
5023;DHT22;2530;47.990;7.866;2023-04-03T00:23:44;6.80;99.90
5023;DHT22;2530;47.990;7.866;2023-04-03T00:26:09;6.60;99.90
5023;DHT22;2530;47.990;7.866;2023-04-03T00:28:35;6.60;99.90
5023;DHT22;2530;47.990;7.866;2023-04-03T00:31:00;6.70;99.90
5023;DHT22;2530;47.990;7.866;2023-04-03T00:33:26;6.70;99.90
5023;DHT22;2530;47.990;7.866;2023-04-03T00:35:52;6.60;99.90
5023;DHT22;2530;47.990;7.866;2023-04-03T00:38:18;6.80;99.90
5023;DHT22;2530;47.990;7.866;2023-04-03T00:40:46;6.80;99.90
5023;DHT22;2530;47.990;7.866;2023-04-03T00:45:42;6.90;99.90
5023;DHT22;2530;47.990;7.866;2023-04-03T00:48:11;6.90;99.90
5023;DHT22;2530;47.990;7.866;2023-04-03T00:50:40;7.00;99.90
5023;DHT22;2530;47.990;7.866;2023-04-03T00:53:08;7.00;99.90
5023;DHT22;2530;47.990;7.866;2023-04-03T00:55:35;7.00;99.90
5023;DHT22;2530;47.990;7.866;2023-04-03T00:58:02;6.80;99.90
5023;DHT22;2530;47.990;7.866;2023-04-03T01:00:28;6.90;99.90
5023;DHT22;2530;47.990;7.866;2023-04-03T01:02:54;6.90;99.90
5023;DHT22;2530;47.990;7.866;2023-04-03T01:05:20;6.80;99.90
5023;DHT22;2530;47.990;7.866;2023-04-03T01:07:48;6.80;99.90
5023;DHT22;2530;47.990;7.866;2023-04-03T01:10:16;6.80;99.90
5023;DHT22;2530;47.990;7.866;2023-04-03T01:12:44;6.90;99.90
5023;DHT22;2530;47.990;7.866;2023-04-03T01:15:17;6.80;99.90
5023;DHT22;2530;47.990;7.866;2023-04-03T01:17:52;6.80;99.90
5023;DHT22;2530;47.990;7.866;2023-04-03T01:25:49;6.60;99.90
5023;DHT22;2530;47.990;7.866;2023-04-03T01:31:10;6.40;99.90
5023;DHT22;2530;47.990;7.866;2023-04-03T01:33:39;6.50;99.90
5023;DHT22;2530;47.990;7.866;2023-04-03T01:36:05;6.50;99.90
5023;DHT22;2530;47.990;7.866;2023-04-03T01:38:31;6.40;99.90
5023;DHT22;2530;47.990;7.866;2023-04-03T01:40:57;6.30;99.90
5023;DHT22;2530;47.990;7.866;2023-04-03T01:43:22;6.20;99.90
5023;DHT22;2530;47.990;7.866;2023-04-03T01:45:48;6.30;99.90
5023;DHT22;2530;47.990;7.866;2023-04-03T01:48:15;6.30;99.90
5023;DHT22;2530;47.990;7.866;2023-04-03T01:50:41;6.30;99.90
5023;DHT22;2530;47.990;7.866;2023-04-03T01:53:06;6.40;99.90
5023;DHT22;2530;47.990;7.866;2023-04-03T01:55:32;6.30;99.90
5023;DHT22;2530;47.990;7.866;2023-04-03T01:57:58;6.40;99.90
5023;DHT22;2530;47.990;7.866;2023-04-03T02:00:23;6.10;99.90
5023;DHT22;2530;47.990;7.866;2023-04-03T02:02:49;6.10;99.90
5023;DHT22;2530;47.990;7.866;2023-04-03T02:05:15;6.30;99.90
5023;DHT22;2530;47.990;7.866;2023-04-03T02:07:40;6.30;99.90
5023;DHT22;2530;47.990;7.866;2023-04-03T02:10:06;6.20;99.90
5023;DHT22;2530;47.990;7.866;2023-04-03T02:12:32;6.20;99.90
5023;DHT22;2530;47.990;7.866;2023-04-03T02:14:58;6.10;99.90
5023;DHT22;2530;47.990;7.866;2023-04-03T02:17:23;6.10;99.90
5023;DHT22;2530;47.990;7.866;2023-04-03T02:19:49;6.20;99.90
5023;DHT22;2530;47.990;7.866;2023-04-03T02:22:14;6.10;99.90
5023;DHT22;2530;47.990;7.866;2023-04-03T02:24:40;5.90;99.90
5023;DHT22;2530;47.990;7.866;2023-04-03T02:27:06;6.00;99.90
5023;DHT22;2530;47.990;7.866;2023-04-03T02:29:32;6.10;99.90
5023;DHT22;2530;47.990;7.866;2023-04-03T02:31:57;6.00;99.90
5023;DHT22;2530;47.990;7.866;2023-04-03T02:34:23;5.90;99.90
5023;DHT22;2530;47.990;7.866;2023-04-03T02:36:49;5.90;99.90
5023;DHT22;2530;47.990;7.866;2023-04-03T02:39:14;5.90;99.90
5023;DHT22;2530;47.990;7.866;2023-04-03T02:41:41;6.00;99.90
5023;DHT22;2530;47.990;7.866;2023-04-03T02:44:08;6.00;99.90
5023;DHT22;2530;47.990;7.866;2023-04-03T02:46:34;5.90;99.90
5023;DHT22;2530;47.990;7.866;2023-04-03T02:49:00;5.60;99.90
5023;DHT22;2530;47.990;7.866;2023-04-03T02:51:25;5.50;99.90
5023;DHT22;2530;47.990;7.866;2023-04-03T02:53:51;5.50;99.90
5023;DHT22;2530;47.990;7.866;2023-04-03T02:56:17;5.60;99.90
5023;DHT22;2530;47.990;7.866;2023-04-03T02:58:44;5.50;99.90
5023;DHT22;2530;47.990;7.866;2023-04-03T03:01:10;5.50;99.90
5023;DHT22;2530;47.990;7.866;2023-04-03T03:03:36;5.50;99.90
5023;DHT22;2530;47.990;7.866;2023-04-03T03:06:04;5.50;99.90
5023;DHT22;2530;47.990;7.866;2023-04-03T03:08:29;5.60;99.90
5023;DHT22;2530;47.990;7.866;2023-04-03T03:10:55;5.70;99.90
5023;DHT22;2530;47.990;7.866;2023-04-03T03:13:20;5.70;99.90
5023;DHT22;2530;47.990;7.866;2023-04-03T03:15:46;5.70;99.90
5023;DHT22;2530;47.990;7.866;2023-04-03T03:18:11;5.70;99.90
5023;DHT22;2530;47.990;7.866;2023-04-03T03:20:37;5.60;99.90
5023;DHT22;2530;47.990;7.866;2023-04-03T03:23:02;5.50;99.90
5023;DHT22;2530;47.990;7.866;2023-04-03T03:25:28;5.60;99.90
5023;DHT22;2530;47.990;7.866;2023-04-03T03:27:53;5.60;99.90
5023;DHT22;2530;47.990;7.866;2023-04-03T03:30:19;5.50;99.90
5023;DHT22;2530;47.990;7.866;2023-04-03T03:32:45;5.50;99.90
5023;DHT22;2530;47.990;7.866;2023-04-03T03:35:10;5.60;99.90
5023;DHT22;2530;47.990;7.866;2023-04-03T03:37:36;5.70;99.90
5023;DHT22;2530;47.990;7.866;2023-04-03T03:40:01;5.60;99.90
5023;DHT22;2530;47.990;7.866;2023-04-03T03:42:27;5.70;99.90
5023;DHT22;2530;47.990;7.866;2023-04-03T03:44:53;5.60;99.90
5023;DHT22;2530;47.990;7.866;2023-04-03T03:47:18;5.70;99.90
5023;DHT22;2530;47.990;7.866;2023-04-03T03:49:44;5.80;99.90
5023;DHT22;2530;47.990;7.866;2023-04-03T03:52:09;5.70;99.90
5023;DHT22;2530;47.990;7.866;2023-04-03T03:54:36;5.70;99.90
5023;DHT22;2530;47.990;7.866;2023-04-03T03:57:02;5.70;99.90
5023;DHT22;2530;47.990;7.866;2023-04-03T03:59:28;5.70;99.90
5023;DHT22;2530;47.990;7.866;2023-04-03T04:01:53;5.60;99.90
5023;DHT22;2530;47.990;7.866;2023-04-03T04:04:19;5.60;99.90
5023;DHT22;2530;47.990;7.866;2023-04-03T04:06:45;5.50;99.90
5023;DHT22;2530;47.990;7.866;2023-04-03T04:09:11;5.50;99.90
5023;DHT22;2530;47.990;7.866;2023-04-03T04:11:37;5.50;99.90
5023;DHT22;2530;47.990;7.866;2023-04-03T04:14:05;5.50;99.90
5023;DHT22;2530;47.990;7.866;2023-04-03T04:16:31;5.40;99.90
5023;DHT22;2530;47.990;7.866;2023-04-03T04:18:56;5.50;99.90
5023;DHT22;2530;47.990;7.866;2023-04-03T04:21:21;5.60;99.90
5023;DHT22;2530;47.990;7.866;2023-04-03T04:23:47;5.60;99.90
5023;DHT22;2530;47.990;7.866;2023-04-03T04:26:13;5.50;99.90
5023;DHT22;2530;47.990;7.866;2023-04-03T04:28:38;5.40;99.90
5023;DHT22;2530;47.990;7.866;2023-04-03T04:31:04;5.40;99.90
5023;DHT22;2530;47.990;7.866;2023-04-03T04:33:29;5.50;99.90
5023;DHT22;2530;47.990;7.866;2023-04-03T04:35:55;5.40;99.90
5023;DHT22;2530;47.990;7.866;2023-04-03T04:38:21;5.50;99.90
5023;DHT22;2530;47.990;7.866;2023-04-03T04:40:47;5.70;99.90
5023;DHT22;2530;47.990;7.866;2023-04-03T04:43:13;5.60;99.90
5023;DHT22;2530;47.990;7.866;2023-04-03T04:45:40;5.60;99.90
5023;DHT22;2530;47.990;7.866;2023-04-03T04:48:05;5.50;99.90
5023;DHT22;2530;47.990;7.866;2023-04-03T04:50:31;5.40;99.90
5023;DHT22;2530;47.990;7.866;2023-04-03T04:52:56;5.40;99.90
5023;DHT22;2530;47.990;7.866;2023-04-03T04:55:22;5.60;99.90
5023;DHT22;2530;47.990;7.866;2023-04-03T04:57:48;5.60;99.90
5023;DHT22;2530;47.990;7.866;2023-04-03T05:00:14;5.40;99.90
5023;DHT22;2530;47.990;7.866;2023-04-03T05:02:40;5.50;99.90
5023;DHT22;2530;47.990;7.866;2023-04-03T05:05:06;5.40;99.90
5023;DHT22;2530;47.990;7.866;2023-04-03T05:07:31;5.50;99.90
5023;DHT22;2530;47.990;7.866;2023-04-03T05:09:57;5.60;99.90
5023;DHT22;2530;47.990;7.866;2023-04-03T05:12:22;5.70;99.90
5023;DHT22;2530;47.990;7.866;2023-04-03T05:14:48;5.60;99.90
5023;DHT22;2530;47.990;7.866;2023-04-03T05:17:13;5.60;99.90
5023;DHT22;2530;47.990;7.866;2023-04-03T05:19:39;5.50;99.90
5023;DHT22;2530;47.990;7.866;2023-04-03T05:22:05;5.40;99.90
5023;DHT22;2530;47.990;7.866;2023-04-03T05:24:30;5.50;99.90
5023;DHT22;2530;47.990;7.866;2023-04-03T05:26:56;5.40;99.90
5023;DHT22;2530;47.990;7.866;2023-04-03T05:29:21;5.60;99.90
5023;DHT22;2530;47.990;7.866;2023-04-03T05:31:49;5.60;99.90
5023;DHT22;2530;47.990;7.866;2023-04-03T05:34:15;5.50;99.90
5023;DHT22;2530;47.990;7.866;2023-04-03T05:36:41;5.60;99.90
5023;DHT22;2530;47.990;7.866;2023-04-03T05:39:07;5.70;99.90
5023;DHT22;2530;47.990;7.866;2023-04-03T05:41:33;5.50;99.90
5023;DHT22;2530;47.990;7.866;2023-04-03T05:43:58;5.70;99.90
5023;DHT22;2530;47.990;7.866;2023-04-03T05:46:24;5.60;99.90
5023;DHT22;2530;47.990;7.866;2023-04-03T05:48:49;5.70;99.90
5023;DHT22;2530;47.990;7.866;2023-04-03T05:51:18;5.70;99.90
5023;DHT22;2530;47.990;7.866;2023-04-03T05:53:44;5.80;99.90
5023;DHT22;2530;47.990;7.866;2023-04-03T05:56:11;5.70;99.90
5023;DHT22;2530;47.990;7.866;2023-04-03T05:58:36;5.70;99.90
5023;DHT22;2530;47.990;7.866;2023-04-03T06:01:02;5.80;99.90
5023;DHT22;2530;47.990;7.866;2023-04-03T06:03:28;6.00;99.90
5023;DHT22;2530;47.990;7.866;2023-04-03T06:05:53;6.10;99.90
5023;DHT22;2530;47.990;7.866;2023-04-03T06:08:19;6.20;99.90
5023;DHT22;2530;47.990;7.866;2023-04-03T06:10:45;6.30;99.90
5023;DHT22;2530;47.990;7.866;2023-04-03T06:13:10;6.30;99.90
5023;DHT22;2530;47.990;7.866;2023-04-03T06:15:37;6.40;99.90
5023;DHT22;2530;47.990;7.866;2023-04-03T06:18:03;6.40;99.90
5023;DHT22;2530;47.990;7.866;2023-04-03T06:20:29;6.40;99.90
5023;DHT22;2530;47.990;7.866;2023-04-03T06:22:54;6.60;99.90
5023;DHT22;2530;47.990;7.866;2023-04-03T06:25:20;6.80;99.90
5023;DHT22;2530;47.990;7.866;2023-04-03T06:27:46;6.60;99.90
5023;DHT22;2530;47.990;7.866;2023-04-03T06:30:12;6.60;99.90
5023;DHT22;2530;47.990;7.866;2023-04-03T06:32:38;6.80;99.90
5023;DHT22;2530;47.990;7.866;2023-04-03T06:35:05;6.70;99.90
5023;DHT22;2530;47.990;7.866;2023-04-03T06:37:31;6.70;99.90
5023;DHT22;2530;47.990;7.866;2023-04-03T06:39:57;6.70;99.90
5023;DHT22;2530;47.990;7.866;2023-04-03T06:42:23;6.70;99.90
5023;DHT22;2530;47.990;7.866;2023-04-03T06:44:49;6.60;99.90
5023;DHT22;2530;47.990;7.866;2023-04-03T06:47:16;6.70;99.90
5023;DHT22;2530;47.990;7.866;2023-04-03T06:49:42;6.70;99.90
5023;DHT22;2530;47.990;7.866;2023-04-03T06:52:08;6.80;94.20
5023;DHT22;2530;47.990;7.866;2023-04-03T06:54:34;6.90;96.20
5023;DHT22;2530;47.990;7.866;2023-04-03T06:57:00;6.80;85.10
5023;DHT22;2530;47.990;7.866;2023-04-03T06:59:25;6.80;85.20
5023;DHT22;2530;47.990;7.866;2023-04-03T07:01:51;6.70;91.50
5023;DHT22;2530;47.990;7.866;2023-04-03T07:04:17;6.80;93.30
5023;DHT22;2530;47.990;7.866;2023-04-03T07:06:43;6.80;92.50
5023;DHT22;2530;47.990;7.866;2023-04-03T07:09:10;6.80;95.70
5023;DHT22;2530;47.990;7.866;2023-04-03T07:11:36;7.00;80.80
5023;DHT22;2530;47.990;7.866;2023-04-03T07:14:02;6.80;73.70
5023;DHT22;2530;47.990;7.866;2023-04-03T07:16:28;6.80;72.10
5023;DHT22;2530;47.990;7.866;2023-04-03T07:18:56;6.80;67.20
5023;DHT22;2530;47.990;7.866;2023-04-03T07:21:22;6.80;67.80
5023;DHT22;2530;47.990;7.866;2023-04-03T07:23:48;6.90;72.70
5023;DHT22;2530;47.990;7.866;2023-04-03T07:26:14;6.90;70.60
5023;DHT22;2530;47.990;7.866;2023-04-03T07:28:39;7.00;67.70
5023;DHT22;2530;47.990;7.866;2023-04-03T07:31:08;7.10;70.00
5023;DHT22;2530;47.990;7.866;2023-04-03T07:33:36;7.20;59.50
5023;DHT22;2530;47.990;7.866;2023-04-03T07:36:02;7.10;58.40
5023;DHT22;2530;47.990;7.866;2023-04-03T07:38:28;7.10;59.40
5023;DHT22;2530;47.990;7.866;2023-04-03T07:40:54;7.10;57.00
5023;DHT22;2530;47.990;7.866;2023-04-03T07:43:20;6.90;55.50
5023;DHT22;2530;47.990;7.866;2023-04-03T07:45:47;7.20;68.20
5023;DHT22;2530;47.990;7.866;2023-04-03T07:48:19;7.30;62.90
5023;DHT22;2530;47.990;7.866;2023-04-03T07:50:45;7.50;58.60
5023;DHT22;2530;47.990;7.866;2023-04-03T07:53:10;7.60;58.70
5023;DHT22;2530;47.990;7.866;2023-04-03T07:55:36;7.80;63.50
5023;DHT22;2530;47.990;7.866;2023-04-03T07:58:09;7.80;59.10
5023;DHT22;2530;47.990;7.866;2023-04-03T08:00:36;7.60;56.50
5023;DHT22;2530;47.990;7.866;2023-04-03T08:03:01;7.60;53.80
5023;DHT22;2530;47.990;7.866;2023-04-03T08:05:27;7.60;52.90
5023;DHT22;2530;47.990;7.866;2023-04-03T08:07:52;7.80;54.40
5023;DHT22;2530;47.990;7.866;2023-04-03T08:10:18;7.80;56.50
5023;DHT22;2530;47.990;7.866;2023-04-03T08:12:46;7.80;55.90
5023;DHT22;2530;47.990;7.866;2023-04-03T08:15:12;7.80;53.70
5023;DHT22;2530;47.990;7.866;2023-04-03T08:17:37;7.50;55.50
5023;DHT22;2530;47.990;7.866;2023-04-03T08:20:05;7.60;50.50
5023;DHT22;2530;47.990;7.866;2023-04-03T08:22:32;7.90;56.40
5023;DHT22;2530;47.990;7.866;2023-04-03T08:24:57;8.10;50.00
5023;DHT22;2530;47.990;7.866;2023-04-03T08:27:23;7.70;50.10
5023;DHT22;2530;47.990;7.866;2023-04-03T08:29:48;7.90;50.60
5023;DHT22;2530;47.990;7.866;2023-04-03T08:32:14;7.80;49.40
5023;DHT22;2530;47.990;7.866;2023-04-03T08:34:40;7.90;52.20
5023;DHT22;2530;47.990;7.866;2023-04-03T08:37:06;8.00;50.80
5023;DHT22;2530;47.990;7.866;2023-04-03T08:39:31;8.00;50.10
5023;DHT22;2530;47.990;7.866;2023-04-03T08:41:58;8.00;50.50
5023;DHT22;2530;47.990;7.866;2023-04-03T08:49:39;8.10;46.40
5023;DHT22;2530;47.990;7.866;2023-04-03T08:52:11;7.90;45.00
5023;DHT22;2530;47.990;7.866;2023-04-03T08:54:49;8.10;45.90
5023;DHT22;2530;47.990;7.866;2023-04-03T08:57:16;8.30;42.40
5023;DHT22;2530;47.990;7.866;2023-04-03T08:59:42;8.20;42.70
5023;DHT22;2530;47.990;7.866;2023-04-03T09:02:25;7.90;40.50
5023;DHT22;2530;47.990;7.866;2023-04-03T09:04:52;7.80;40.30
5023;DHT22;2530;47.990;7.866;2023-04-03T09:07:36;8.00;41.80
5023;DHT22;2530;47.990;7.866;2023-04-03T09:10:05;7.90;38.80
5023;DHT22;2530;47.990;7.866;2023-04-03T09:12:42;8.10;35.30
5023;DHT22;2530;47.990;7.866;2023-04-03T09:15:20;8.10;37.60
5023;DHT22;2530;47.990;7.866;2023-04-03T09:17:58;8.20;36.50
5023;DHT22;2530;47.990;7.866;2023-04-03T09:20:41;8.60;37.40
5023;DHT22;2530;47.990;7.866;2023-04-03T09:23:38;8.60;36.10
5023;DHT22;2530;47.990;7.866;2023-04-03T09:26:11;8.60;35.30
5023;DHT22;2530;47.990;7.866;2023-04-03T09:28:40;8.50;34.80
5023;DHT22;2530;47.990;7.866;2023-04-03T09:31:23;8.10;35.60
5023;DHT22;2530;47.990;7.866;2023-04-03T09:33:50;7.90;36.70
5023;DHT22;2530;47.990;7.866;2023-04-03T09:36:37;7.80;38.70
5023;DHT22;2530;47.990;7.866;2023-04-03T09:39:05;7.90;35.60
5023;DHT22;2530;47.990;7.866;2023-04-03T09:41:31;7.60;31.30
5023;DHT22;2530;47.990;7.866;2023-04-03T09:43:58;7.60;31.90
5023;DHT22;2530;47.990;7.866;2023-04-03T09:46:32;7.30;31.70
5023;DHT22;2530;47.990;7.866;2023-04-03T09:49:05;7.60;29.70
5023;DHT22;2530;47.990;7.866;2023-04-03T09:51:32;7.50;31.90
5023;DHT22;2530;47.990;7.866;2023-04-03T09:53:58;7.40;28.90
5023;DHT22;2530;47.990;7.866;2023-04-03T09:56:30;7.70;29.70
5023;DHT22;2530;47.990;7.866;2023-04-03T10:01:37;8.00;27.20
5023;DHT22;2530;47.990;7.866;2023-04-03T10:06:34;8.40;27.80
5023;DHT22;2530;47.990;7.866;2023-04-03T10:09:28;8.50;24.70
5023;DHT22;2530;47.990;7.866;2023-04-03T10:12:08;8.90;25.50
5023;DHT22;2530;47.990;7.866;2023-04-03T10:15:01;9.00;22.90
5023;DHT22;2530;47.990;7.866;2023-04-03T10:26:29;8.60;23.10
5023;DHT22;2530;47.990;7.866;2023-04-03T10:35:11;8.70;24.30
5023;DHT22;2530;47.990;7.866;2023-04-03T10:38:01;8.80;23.60
5023;DHT22;2530;47.990;7.866;2023-04-03T10:53:50;8.40;24.50
5023;DHT22;2530;47.990;7.866;2023-04-03T10:56:35;8.50;25.10
5023;DHT22;2530;47.990;7.866;2023-04-03T10:59:26;8.30;24.40
5023;DHT22;2530;47.990;7.866;2023-04-03T11:02:00;8.30;25.00
5023;DHT22;2530;47.990;7.866;2023-04-03T11:04:29;8.50;25.60
5023;DHT22;2530;47.990;7.866;2023-04-03T11:07:08;8.40;23.20
5023;DHT22;2530;47.990;7.866;2023-04-03T11:09:41;8.50;22.90
5023;DHT22;2530;47.990;7.866;2023-04-03T11:12:27;8.30;24.60
5023;DHT22;2530;47.990;7.866;2023-04-03T11:14:55;8.40;23.90
5023;DHT22;2530;47.990;7.866;2023-04-03T11:17:28;8.50;24.40
5023;DHT22;2530;47.990;7.866;2023-04-03T11:22:43;8.80;25.20
5023;DHT22;2530;47.990;7.866;2023-04-03T11:27:54;8.90;23.20
5023;DHT22;2530;47.990;7.866;2023-04-03T11:35:48;8.90;21.00
5023;DHT22;2530;47.990;7.866;2023-04-03T11:38:33;9.00;23.80
5023;DHT22;2530;47.990;7.866;2023-04-03T11:41:03;8.70;21.80
5023;DHT22;2530;47.990;7.866;2023-04-03T11:43:31;9.20;24.00
5023;DHT22;2530;47.990;7.866;2023-04-03T11:51:02;8.70;23.30
5023;DHT22;2530;47.990;7.866;2023-04-03T11:53:37;9.30;23.20
5023;DHT22;2530;47.990;7.866;2023-04-03T12:04:18;10.10;19.90
5023;DHT22;2530;47.990;7.866;2023-04-03T12:09:26;10.10;19.00
5023;DHT22;2530;47.990;7.866;2023-04-03T12:11:53;10.10;18.80
5023;DHT22;2530;47.990;7.866;2023-04-03T12:14:22;9.90;19.10
5023;DHT22;2530;47.990;7.866;2023-04-03T12:16:50;9.50;19.90
5023;DHT22;2530;47.990;7.866;2023-04-03T12:30:06;9.20;22.90
5023;DHT22;2530;47.990;7.866;2023-04-03T12:35:37;9.30;21.60
5023;DHT22;2530;47.990;7.866;2023-04-03T12:38:37;9.20;19.30
5023;DHT22;2530;47.990;7.866;2023-04-03T12:46:52;8.90;19.90
5023;DHT22;2530;47.990;7.866;2023-04-03T12:49:39;9.40;19.90
5023;DHT22;2530;47.990;7.866;2023-04-03T12:52:19;9.20;20.30
5023;DHT22;2530;47.990;7.866;2023-04-03T12:54:46;9.40;19.50
5023;DHT22;2530;47.990;7.866;2023-04-03T12:57:21;9.30;19.00
5023;DHT22;2530;47.990;7.866;2023-04-03T12:59:49;9.50;20.40
5023;DHT22;2530;47.990;7.866;2023-04-03T13:02:31;9.40;20.30
5023;DHT22;2530;47.990;7.866;2023-04-03T13:04:59;9.10;21.10
5023;DHT22;2530;47.990;7.866;2023-04-03T13:07:30;8.90;19.30
5023;DHT22;2530;47.990;7.866;2023-04-03T13:10:19;8.90;21.00
5023;DHT22;2530;47.990;7.866;2023-04-03T13:12:53;9.30;20.50
5023;DHT22;2530;47.990;7.866;2023-04-03T13:15:28;9.20;21.20
5023;DHT22;2530;47.990;7.866;2023-04-03T13:17:55;9.10;19.60
5023;DHT22;2530;47.990;7.866;2023-04-03T13:20:30;9.00;19.60
5023;DHT22;2530;47.990;7.866;2023-04-03T13:23:01;9.10;19.00
5023;DHT22;2530;47.990;7.866;2023-04-03T13:25:30;8.90;18.40
5023;DHT22;2530;47.990;7.866;2023-04-03T13:27:58;9.10;20.00
5023;DHT22;2530;47.990;7.866;2023-04-03T13:30:36;9.10;18.90
5023;DHT22;2530;47.990;7.866;2023-04-03T13:33:05;9.20;17.40
5023;DHT22;2530;47.990;7.866;2023-04-03T13:35:35;9.20;18.90
5023;DHT22;2530;47.990;7.866;2023-04-03T13:38:20;9.20;19.10
5023;DHT22;2530;47.990;7.866;2023-04-03T13:40:56;9.20;19.50
5023;DHT22;2530;47.990;7.866;2023-04-03T13:43:27;9.10;18.90
5023;DHT22;2530;47.990;7.866;2023-04-03T13:45:56;8.90;18.50
5023;DHT22;2530;47.990;7.866;2023-04-03T13:48:22;8.70;18.60
5023;DHT22;2530;47.990;7.866;2023-04-03T13:51:01;9.00;19.50
5023;DHT22;2530;47.990;7.866;2023-04-03T13:53:29;9.00;19.40
5023;DHT22;2530;47.990;7.866;2023-04-03T13:58:31;9.10;18.10
5023;DHT22;2530;47.990;7.866;2023-04-03T14:01:33;9.00;18.90
5023;DHT22;2530;47.990;7.866;2023-04-03T14:04:01;9.00;19.60
5023;DHT22;2530;47.990;7.866;2023-04-03T14:06:28;8.90;20.80
5023;DHT22;2530;47.990;7.866;2023-04-03T14:08:54;9.10;16.10
5023;DHT22;2530;47.990;7.866;2023-04-03T14:11:28;9.00;19.90
5023;DHT22;2530;47.990;7.866;2023-04-03T14:13:56;8.90;18.30
5023;DHT22;2530;47.990;7.866;2023-04-03T14:16:26;8.90;17.80
5023;DHT22;2530;47.990;7.866;2023-04-03T14:18:52;9.00;18.00
5023;DHT22;2530;47.990;7.866;2023-04-03T14:21:19;8.80;16.60
5023;DHT22;2530;47.990;7.866;2023-04-03T14:23:45;8.90;16.80
5023;DHT22;2530;47.990;7.866;2023-04-03T14:26:21;8.90;17.90
5023;DHT22;2530;47.990;7.866;2023-04-03T14:28:48;8.80;19.00
5023;DHT22;2530;47.990;7.866;2023-04-03T14:31:15;8.90;18.50
5023;DHT22;2530;47.990;7.866;2023-04-03T14:33:41;8.80;18.00
5023;DHT22;2530;47.990;7.866;2023-04-03T14:36:33;8.80;19.00
5023;DHT22;2530;47.990;7.866;2023-04-03T14:38:59;8.90;18.40
5023;DHT22;2530;47.990;7.866;2023-04-03T14:41:26;9.00;19.00
5023;DHT22;2530;47.990;7.866;2023-04-03T14:43:52;8.90;17.70
5023;DHT22;2530;47.990;7.866;2023-04-03T14:46:24;9.00;18.00
5023;DHT22;2530;47.990;7.866;2023-04-03T14:48:51;8.70;18.50
5023;DHT22;2530;47.990;7.866;2023-04-03T14:51:17;8.80;18.90
5023;DHT22;2530;47.990;7.866;2023-04-03T14:53:44;8.50;17.80
5023;DHT22;2530;47.990;7.866;2023-04-03T14:56:22;8.60;19.90
5023;DHT22;2530;47.990;7.866;2023-04-03T14:58:50;8.60;19.30
5023;DHT22;2530;47.990;7.866;2023-04-03T15:01:17;8.60;21.30
5023;DHT22;2530;47.990;7.866;2023-04-03T15:03:43;8.50;20.20
5023;DHT22;2530;47.990;7.866;2023-04-03T15:06:11;8.50;19.60
5023;DHT22;2530;47.990;7.866;2023-04-03T15:08:37;8.60;19.50
5023;DHT22;2530;47.990;7.866;2023-04-03T15:11:03;8.70;16.20
5023;DHT22;2530;47.990;7.866;2023-04-03T15:13:29;8.60;14.90
5023;DHT22;2530;47.990;7.866;2023-04-03T15:15:54;8.60;15.20
5023;DHT22;2530;47.990;7.866;2023-04-03T15:18:23;8.50;15.80
5023;DHT22;2530;47.990;7.866;2023-04-03T15:20:51;9.20;16.50
5023;DHT22;2530;47.990;7.866;2023-04-03T15:23:17;8.70;15.80
5023;DHT22;2530;47.990;7.866;2023-04-03T15:25:44;8.50;15.50
5023;DHT22;2530;47.990;7.866;2023-04-03T15:28:28;8.50;15.60
5023;DHT22;2530;47.990;7.866;2023-04-03T15:30:54;8.20;17.30
5023;DHT22;2530;47.990;7.866;2023-04-03T15:33:20;8.40;18.90
5023;DHT22;2530;47.990;7.866;2023-04-03T15:35:46;8.50;17.30
5023;DHT22;2530;47.990;7.866;2023-04-03T15:38:12;8.40;18.50
5023;DHT22;2530;47.990;7.866;2023-04-03T15:40:37;8.50;15.70
5023;DHT22;2530;47.990;7.866;2023-04-03T15:43:05;8.50;15.50
5023;DHT22;2530;47.990;7.866;2023-04-03T15:45:32;8.60;16.20
5023;DHT22;2530;47.990;7.866;2023-04-03T15:47:59;8.40;16.40
5023;DHT22;2530;47.990;7.866;2023-04-03T15:50:25;8.50;15.40
5023;DHT22;2530;47.990;7.866;2023-04-03T15:52:52;8.30;16.30
5023;DHT22;2530;47.990;7.866;2023-04-03T15:55:23;8.50;17.30
5023;DHT22;2530;47.990;7.866;2023-04-03T15:57:49;8.50;14.60
5023;DHT22;2530;47.990;7.866;2023-04-03T16:00:15;8.30;14.70
5023;DHT22;2530;47.990;7.866;2023-04-03T16:02:41;8.30;15.20
5023;DHT22;2530;47.990;7.866;2023-04-03T16:05:09;8.20;16.30
5023;DHT22;2530;47.990;7.866;2023-04-03T16:07:37;8.30;15.00
5023;DHT22;2530;47.990;7.866;2023-04-03T16:10:04;8.10;15.40
5023;DHT22;2530;47.990;7.866;2023-04-03T16:12:29;8.10;15.00
5023;DHT22;2530;47.990;7.866;2023-04-03T16:14:55;8.00;15.50
5023;DHT22;2530;47.990;7.866;2023-04-03T16:17:21;8.00;13.20
5023;DHT22;2530;47.990;7.866;2023-04-03T16:19:46;7.90;14.70
5023;DHT22;2530;47.990;7.866;2023-04-03T16:22:12;8.00;15.50
5023;DHT22;2530;47.990;7.866;2023-04-03T16:24:38;7.90;14.20
5023;DHT22;2530;47.990;7.866;2023-04-03T16:27:04;7.80;12.90
5023;DHT22;2530;47.990;7.866;2023-04-03T16:29:29;7.90;12.10
5023;DHT22;2530;47.990;7.866;2023-04-03T16:31:56;7.70;13.20
5023;DHT22;2530;47.990;7.866;2023-04-03T16:34:22;7.60;12.90
5023;DHT22;2530;47.990;7.866;2023-04-03T16:36:48;7.70;13.60
5023;DHT22;2530;47.990;7.866;2023-04-03T16:39:14;7.60;13.20
5023;DHT22;2530;47.990;7.866;2023-04-03T16:41:39;7.60;13.90
5023;DHT22;2530;47.990;7.866;2023-04-03T16:44:05;7.70;14.80
5023;DHT22;2530;47.990;7.866;2023-04-03T16:46:32;7.80;15.80
5023;DHT22;2530;47.990;7.866;2023-04-03T16:48:58;7.80;14.20
5023;DHT22;2530;47.990;7.866;2023-04-03T16:51:23;8.00;14.00
5023;DHT22;2530;47.990;7.866;2023-04-03T16:53:49;8.10;14.30
5023;DHT22;2530;47.990;7.866;2023-04-03T16:56:14;7.80;13.00
5023;DHT22;2530;47.990;7.866;2023-04-03T16:58:40;7.90;14.30
5023;DHT22;2530;47.990;7.866;2023-04-03T17:01:14;7.80;14.80
5023;DHT22;2530;47.990;7.866;2023-04-03T17:03:40;7.70;14.00
5023;DHT22;2530;47.990;7.866;2023-04-03T17:06:06;7.60;14.50
5023;DHT22;2530;47.990;7.866;2023-04-03T17:08:31;7.60;14.70
5023;DHT22;2530;47.990;7.866;2023-04-03T17:10:57;7.60;15.00
5023;DHT22;2530;47.990;7.866;2023-04-03T17:13:22;7.50;16.00
5023;DHT22;2530;47.990;7.866;2023-04-03T17:15:48;7.50;16.00
5023;DHT22;2530;47.990;7.866;2023-04-03T17:18:14;7.50;16.40
5023;DHT22;2530;47.990;7.866;2023-04-03T17:20:40;7.50;16.30
5023;DHT22;2530;47.990;7.866;2023-04-03T17:23:06;7.50;16.10
5023;DHT22;2530;47.990;7.866;2023-04-03T17:25:31;7.50;16.40
5023;DHT22;2530;47.990;7.866;2023-04-03T17:27:57;7.40;17.40
5023;DHT22;2530;47.990;7.866;2023-04-03T17:30:22;7.50;17.10
5023;DHT22;2530;47.990;7.866;2023-04-03T17:32:48;7.40;17.70
5023;DHT22;2530;47.990;7.866;2023-04-03T17:35:14;7.30;19.60
5023;DHT22;2530;47.990;7.866;2023-04-03T17:37:39;7.40;18.20
5023;DHT22;2530;47.990;7.866;2023-04-03T17:40:06;7.30;18.10
5023;DHT22;2530;47.990;7.866;2023-04-03T17:42:32;7.60;17.80
5023;DHT22;2530;47.990;7.866;2023-04-03T17:44:57;7.60;17.20
5023;DHT22;2530;47.990;7.866;2023-04-03T17:47:25;7.40;17.30
5023;DHT22;2530;47.990;7.866;2023-04-03T17:49:50;7.20;19.10
5023;DHT22;2530;47.990;7.866;2023-04-03T17:52:16;7.10;18.70
5023;DHT22;2530;47.990;7.866;2023-04-03T17:54:42;7.00;17.30
5023;DHT22;2530;47.990;7.866;2023-04-03T17:57:07;6.90;17.20
5023;DHT22;2530;47.990;7.866;2023-04-03T17:59:33;7.00;18.90
5023;DHT22;2530;47.990;7.866;2023-04-03T18:01:58;7.10;17.90